»·PEaware :: N704YA MMTJ-KAJO

N704YA :: MMTJ-KAJO

FLIGHT INFORMATION

Flight Status: Arrived
Operator: Privately registered:
United States
More flights under this callsign
Pilot: Wayne R. (17783)
Aircraft: CESSNA 152 AEROBAT
(C152)
More flights by this aircraft type
Origin: MMTJ Gen Abelardo L Rodriguez Intl
Mexico
Destination: KAJO Corona Mun
United States
More flights between these airports :: More routes between these airports
Route:
File this flight plan on PilotEdge
Remarks:
Altitude:
(Current/Filed)
4,500ft
Speed:
(Current/Filed)
100kts
Departed: 25-Oct-20 01:36 PM
Arrived: 25-Oct-20 02:37 PM
Distance/Time
Traveled:
87nm/1:00
Distance/Time
To Go:
Arrived

Flight Plot

Page will automatically refresh every two minutes.

Flight plan parsing failed; only flown route is shown


Map Options




Map Legend


Flown Route
Filed Route
Departure Airport
Arrival Airport
Navaid (VOR, NDB)
Fix

Horizontal Profiles

Position Reports

Time Latitude Longitude Heading Altitude Ground
Speed
25-Oct-20 13:33 32.540002 -116.954239 183 466ft 0kts
25-Oct-20 13:34 32.539498 -116.954621 238 466ft 24kts
25-Oct-20 13:35 32.541180 -116.974627 275 982ft 67kts
25-Oct-20 13:36 32.539438 -116.997794 222 1700ft 77kts
25-Oct-20 13:37 32.518950 -117.007981 177 2329ft 88kts
25-Oct-20 13:38 32.502995 -117.015896 284 2908ft 80kts
25-Oct-20 13:39 32.517148 -117.036876 322 3381ft 84kts
25-Oct-20 13:40 32.537679 -117.053022 325 3668ft 92kts
25-Oct-20 13:41 32.559515 -117.069864 329 3836ft 95kts
25-Oct-20 13:42 32.582915 -117.084281 333 4013ft 94kts
25-Oct-20 13:43 32.606249 -117.098769 329 4146ft 95kts
25-Oct-20 13:44 32.610334 -117.101505 329 4168ft 95kts
25-Oct-20 13:45 32.634135 -117.116768 329 4180ft 98kts
25-Oct-20 13:46 32.657752 -117.133036 333 4201ft 98kts
25-Oct-20 13:47 32.683070 -117.145162 332 4227ft 98kts
25-Oct-20 13:48 32.707541 -117.161077 339 4090ft 104kts
25-Oct-20 13:49 32.735562 -117.164867 359 4041ft 101kts
25-Oct-20 13:50 32.763731 -117.161836 8 4009ft 101kts
25-Oct-20 13:51 32.790253 -117.168189 332 4042ft 96kts
25-Oct-20 13:52 32.812057 -117.185437 317 4194ft 94kts
25-Oct-20 13:53 32.830779 -117.206397 310 4373ft 92kts
25-Oct-20 13:54 32.848665 -117.228409 317 4516ft 93kts
25-Oct-20 13:55 32.869515 -117.247825 325 4587ft 99kts
25-Oct-20 13:56 32.894182 -117.263251 340 4634ft 101kts
25-Oct-20 13:57 32.921254 -117.274169 337 4588ft 102kts
25-Oct-20 13:58 32.945321 -117.290661 316 4764ft 100kts
25-Oct-20 13:59 32.967194 -117.309992 339 4926ft 98kts
25-Oct-20 14:00 32.993223 -117.319409 343 5202ft 97kts
25-Oct-20 14:01 33.020212 -117.321545 353 5493ft 97kts
25-Oct-20 14:02 33.046381 -117.320995 7 5869ft 92kts
25-Oct-20 14:03 33.071585 -117.318981 354 6298ft 90kts
25-Oct-20 14:04 33.098021 -117.318335 1 6500ft 101kts
25-Oct-20 14:05 33.126597 -117.316219 3 6504ft 104kts
25-Oct-20 14:06 33.155776 -117.318062 355 6500ft 105kts
25-Oct-20 14:07 33.184858 -117.319921 356 6496ft 105kts
25-Oct-20 14:08 33.214227 -117.321230 357 6493ft 105kts
25-Oct-20 14:09 33.243460 -117.322453 347 6501ft 104kts
25-Oct-20 14:10 33.271207 -117.332402 342 6505ft 104kts
25-Oct-20 14:11 33.299335 -117.341936 343 6508ft 105kts
25-Oct-20 14:12 33.327430 -117.350802 344 6508ft 104kts
25-Oct-20 14:13 33.355786 -117.359314 344 6507ft 104kts
25-Oct-20 14:14 33.384164 -117.367579 345 6513ft 105kts
25-Oct-20 14:15 33.412528 -117.375617 346 6509ft 104kts
25-Oct-20 14:16 33.440914 -117.383203 346 6497ft 104kts
25-Oct-20 14:17 33.469411 -117.390488 346 6494ft 104kts
25-Oct-20 14:18 33.497940 -117.397651 347 6497ft 105kts
25-Oct-20 14:19 33.526534 -117.404635 347 6499ft 105kts
25-Oct-20 14:20 33.555246 -117.411281 348 6498ft 104kts
25-Oct-20 14:21 33.583881 -117.417639 348 6501ft 104kts
25-Oct-20 14:22 33.612601 -117.423883 348 6504ft 105kts
25-Oct-20 14:23 33.641398 -117.430104 348 6528ft 100kts
25-Oct-20 14:24 33.668924 -117.431373 4 6269ft 99kts
25-Oct-20 14:25 33.695831 -117.437299 338 5769ft 98kts
25-Oct-20 14:26 33.721497 -117.450260 336 5119ft 101kts
25-Oct-20 14:27 33.746539 -117.465190 330 4466ft 101kts
25-Oct-20 14:28 33.770827 -117.482682 328 3387ft 104kts
25-Oct-20 14:29 33.795245 -117.500254 328 2245ft 100kts
25-Oct-20 14:30 33.818040 -117.516467 329 1562ft 87kts
25-Oct-20 14:31 33.839631 -117.530125 346 1543ft 89kts
25-Oct-20 14:32 33.863849 -117.523096 5 1516ft 88kts
25-Oct-20 14:33 33.884179 -117.536483 344 1559ft 84kts
25-Oct-20 14:35 33.897371 -117.559206 282 1435ft 89kts
25-Oct-20 14:36 33.897880 -117.589086 267 822ft 87kts
25-Oct-20 14:37 33.896665 -117.602623 81 527ft 13kts
25-Oct-20 14:38 33.896682 -117.602466 80 527ft 0kts
25-Oct-20 14:39 33.896733 -117.602257 70 527ft 0kts

Navigation Log

Ident Type
Flight plan parsing failed, navigation log unavailable